ボゴタ の空港の天気 - METARとTAF

エルドラド国際空港(ボコダ) ( SKBO / BOG ) - コロンビア ボゴタ
飛行場実況気象(Metar)
観測時間04/26 23:00 COT (04/27 04:00 UTC)
風向・風速南東 2m/s
視程10km以上
天気現象
少しの雲 雲底高度 300m
全天の4割程度の雲 雲底高度 520m
全天の8割程度の雲 雲底高度 2130m
気温13℃
湿度88%
気圧1028hPa
METARSKBO 270400Z 13004KT 9999 FEW010 SCT017 BKN070 13/11 A3036
過去の天気等 Google飛行場航空写真 Wunderground天気予報

過去48時間のMETAR

飛行場予報(TAF)
発表時間: 4/26 18:00 COT (4/26 23:00 UTC)
予報対象時間: 26日19時 COT ~ 27日19時 COT
風向・風速西北西 3m/s
視程10km以上
全天の4割程度の雲 雲底高度 610m
全天の4割程度の雲 雲底高度 2,740m
26日19時 COT ~ 26日22時 COT に一時的に
視程8,000m
天気現象
全天の4割程度の積乱雲 雲底高度 550m
27日3時 COT ~ 27日8時 COT に一時的に
視程5,000m
天気現象散在した霧 霧雨
全天の4割程度の雲 雲底高度 460m
27日12時 COT ~ 27日19時 COT に一時的に
視程8,000m
天気現象周辺でしゅう雨
全天の4割程度の塔状積雲 雲底高度 700m
27日12時 COT から 確率 40% で
視程7,000m
天気現象
全天の4割程度の積乱雲 雲底高度 550m
TAF SKBO 262300Z 2700/2724 30006KT 9999 SCT020 SCT090
TEMPO 2700/2703 8000 RA SCT018CB
TEMPO 2708/2713 5000 BCFG DZ SCT015
TEMPO 2717/2724 8000 VCSH SCT023TCU
PROB40 2717/2721 7000 RA SCT018CB TX20/2718Z TN09/2711Z